Time;durP1;ratioP1;P1;durP2;ratioP2;P2;SDS_P1;SDS_P2;PMS_P1;PMS_P2;Temp;Humidity;BMP_temperature;BMP_pressure;BME280_temperature;BME280_humidity;BME280_pressure;Samples;Min_cycle;Max_cycle;Signal;HPM_P1;HPM_P2
2024/04/21 00:00:33;;;;;;;2.53;2.13;;;3.80;99.90;;;;;;5243704;26;20006;-71
2024/04/21 00:02:58;;;;;;;2.63;2.17;;;3.80;99.90;;;;;;5249835;27;20002;-72
2024/04/21 00:05:24;;;;;;;3.53;2.15;;;3.80;99.90;;;;;;5268175;27;20012;-71
2024/04/21 00:07:49;;;;;;;4.75;2.42;;;3.80;99.90;;;;;;5277818;27;20001;-72
2024/04/21 00:10:15;;;;;;;2.58;2.38;;;3.90;99.90;;;;;;5294254;27;20083;-72
2024/04/21 00:12:41;;;;;;;2.67;2.30;;;3.90;99.90;;;;;;5285224;27;20009;-72
2024/04/21 00:15:07;;;;;;;4.03;2.97;;;3.90;99.90;;;;;;5290041;27;20065;-72
2024/04/21 00:17:34;;;;;;;3.50;2.63;;;3.90;99.90;;;;;;5282950;26;19998;-72
2024/04/21 00:20:00;;;;;;;3.60;2.90;;;4.00;99.90;;;;;;5291714;27;19997;-71
2024/04/21 00:22:25;;;;;;;3.25;2.47;;;3.90;99.90;;;;;;5272691;27;20293;-72
2024/04/21 00:24:51;;;;;;;2.38;2.17;;;3.90;99.90;;;;;;5277207;27;20016;-71
2024/04/21 00:27:16;;;;;;;3.05;2.60;;;3.90;99.90;;;;;;5290309;27;20013;-71
2024/04/21 00:29:42;;;;;;;2.60;2.28;;;3.90;99.90;;;;;;5290544;27;20057;-71
2024/04/21 00:32:08;;;;;;;3.88;2.90;;;3.90;99.90;;;;;;5286827;27;19998;-71
2024/04/21 00:34:33;;;;;;;3.25;2.60;;;3.90;99.90;;;;;;5275131;27;20010;-72
2024/04/21 00:36:59;;;;;;;3.47;2.45;;;3.90;99.90;;;;;;5268923;27;20013;-71
2024/04/21 00:39:24;;;;;;;3.35;2.60;;;3.90;99.90;;;;;;5286734;27;20001;-72
2024/04/21 00:41:50;;;;;;;3.15;2.35;;;3.90;99.90;;;;;;5273500;27;20002;-72
2024/04/21 00:44:16;;;;;;;3.35;2.50;;;3.90;99.90;;;;;;5274792;27;19997;-72
2024/04/21 00:46:42;;;;;;;3.53;2.33;;;3.90;99.90;;;;;;5289472;26;20362;-71
2024/04/21 00:49:09;;;;;;;2.55;2.35;;;3.80;99.90;;;;;;5291757;26;20016;-72
2024/04/21 00:51:34;;;;;;;3.03;2.03;;;3.80;99.90;;;;;;5293246;26;20001;-71
2024/04/21 00:54:01;;;;;;;2.88;2.55;;;3.80;99.90;;;;;;5260122;26;20060;-72
2024/04/21 00:56:27;;;;;;;2.45;2.20;;;3.80;99.90;;;;;;5289617;27;20042;-71
2024/04/21 00:58:54;;;;;;;2.60;2.40;;;3.70;99.90;;;;;;5281461;26;19998;-72
2024/04/21 01:01:21;;;;;;;3.75;2.88;;;3.70;99.90;;;;;;5303187;26;20020;-71
2024/04/21 01:03:46;;;;;;;2.90;1.92;;;3.70;99.90;;;;;;5299743;26;20001;-71
2024/04/21 01:06:12;;;;;;;1.85;1.60;;;3.70;99.90;;;;;;5291512;26;20010;-71
2024/04/21 01:08:38;;;;;;;3.40;2.40;;;3.70;99.90;;;;;;5300390;26;20035;-71
2024/04/21 01:11:04;;;;;;;1.75;1.48;;;3.60;99.90;;;;;;5284545;27;20008;-72
2024/04/21 01:13:29;;;;;;;3.35;2.28;;;3.60;99.90;;;;;;5280888;26;20001;-71
2024/04/21 01:15:56;;;;;;;2.60;2.10;;;3.60;99.90;;;;;;5285290;26;20013;-72
2024/04/21 01:18:21;;;;;;;2.72;2.53;;;3.60;99.90;;;;;;5294924;26;20604;-71
2024/04/21 01:20:47;;;;;;;3.53;2.30;;;3.50;99.90;;;;;;5299638;26;20080;-71
2024/04/21 01:23:13;;;;;;;2.22;2.00;;;3.50;99.90;;;;;;5290011;26;20724;-72
2024/04/21 01:25:39;;;;;;;2.38;1.95;;;3.50;99.90;;;;;;5298200;26;20001;-72
2024/04/21 01:28:05;;;;;;;2.38;2.15;;;3.40;99.90;;;;;;5292507;26;20002;-72
2024/04/21 01:30:32;;;;;;;2.25;2.00;;;3.50;99.90;;;;;;5268702;27;20001;-72
2024/04/21 01:32:58;;;;;;;2.15;1.70;;;3.50;99.90;;;;;;5271791;27;20046;-72
2024/04/21 01:35:24;;;;;;;3.67;2.40;;;3.40;99.90;;;;;;5284483;27;20266;-72
2024/04/21 01:37:50;;;;;;;2.78;2.47;;;3.40;99.90;;;;;;5289993;27;20764;-72
2024/04/21 01:40:16;;;;;;;3.15;2.30;;;3.50;99.90;;;;;;5298421;26;20046;-73
2024/04/21 01:42:42;;;;;;;2.83;2.30;;;3.50;99.90;;;;;;5301816;26;20027;-72
2024/04/21 01:45:08;;;;;;;2.47;2.08;;;3.50;99.90;;;;;;5291737;26;20045;-72
2024/04/21 01:47:33;;;;;;;2.13;1.90;;;3.50;99.90;;;;;;5298003;26;20454;-71
2024/04/21 01:49:59;;;;;;;3.17;2.58;;;3.50;99.90;;;;;;5298565;26;20001;-71
2024/04/21 01:52:25;;;;;;;2.33;1.67;;;3.50;99.90;;;;;;5296053;26;20009;-72
2024/04/21 01:54:50;;;;;;;3.38;2.33;;;3.50;99.90;;;;;;5291989;26;20005;-71
2024/04/21 01:57:16;;;;;;;2.42;2.22;;;3.40;99.90;;;;;;5260044;26;20832;-72
2024/04/21 01:59:41;;;;;;;2.78;2.05;;;3.40;99.90;;;;;;5268474;27;20003;-71
2024/04/21 02:02:07;;;;;;;2.70;2.50;;;3.40;99.90;;;;;;5290898;26;20013;-72
2024/04/21 02:04:33;;;;;;;2.03;1.90;;;3.40;99.90;;;;;;5266874;26;20344;-71
2024/04/21 02:06:58;;;;;;;3.45;2.55;;;3.40;99.90;;;;;;5293180;26;20060;-72
2024/04/21 02:09:24;;;;;;;3.17;2.47;;;3.50;99.90;;;;;;5293192;26;20546;-71
2024/04/21 02:11:50;;;;;;;2.08;1.90;;;3.50;99.90;;;;;;5296854;26;20002;-72
2024/04/21 02:14:15;;;;;;;2.20;1.92;;;3.50;99.90;;;;;;5293435;26;20297;-72
2024/04/21 02:16:41;;;;;;;2.10;2.00;;;3.50;99.90;;;;;;5290505;26;20693;-71
2024/04/21 02:19:08;;;;;;;2.13;1.95;;;3.50;99.90;;;;;;5294966;26;20006;-71
2024/04/21 02:21:34;;;;;;;2.58;1.80;;;3.50;99.90;;;;;;5285633;26;20012;-71
2024/04/21 02:24:00;;;;;;;2.50;2.13;;;3.60;99.90;;;;;;5296021;27;20005;-72
2024/04/21 02:26:26;;;;;;;1.50;1.40;;;3.50;99.90;;;;;;5294428;27;20002;-71
2024/04/21 02:28:51;;;;;;;2.92;2.00;;;3.50;99.90;;;;;;5295463;26;20894;-71
2024/04/21 02:31:17;;;;;;;1.20;0.88;;;3.60;99.90;;;;;;5308173;26;19993;-72
2024/04/21 02:33:43;;;;;;;1.75;1.65;;;3.50;99.90;;;;;;5288364;26;20299;-71
2024/04/21 02:36:08;;;;;;;1.02;0.95;;;3.50;99.90;;;;;;5296053;26;20049;-71
2024/04/21 02:38:34;;;;;;;1.55;1.45;;;3.50;99.90;;;;;;5293900;27;20011;-71
2024/04/21 02:41:00;;;;;;;3.05;2.55;;;3.50;99.90;;;;;;5294602;26;20041;-71
2024/04/21 02:43:25;;;;;;;2.42;1.90;;;3.60;99.90;;;;;;5298890;26;20001;-71
2024/04/21 02:45:51;;;;;;;2.90;2.25;;;3.60;99.90;;;;;;5263860;27;20003;-72
2024/04/21 02:48:17;;;;;;;2.83;2.10;;;3.60;99.90;;;;;;5294928;26;19998;-72
2024/04/21 02:50:42;;;;;;;3.33;2.88;;;3.70;99.90;;;;;;5291654;27;20049;-71
2024/04/21 02:53:08;;;;;;;2.58;2.30;;;3.70;99.90;;;;;;5290705;27;20001;-70
2024/04/21 02:55:41;;;;;;;3.10;2.80;;;3.70;99.90;;;;;;5251142;27;20355;-71
2024/04/21 02:58:06;;;;;;;4.38;2.80;;;3.70;99.90;;;;;;5290904;27;20045;-72
2024/04/21 03:00:32;;;;;;;4.70;2.70;;;3.80;99.90;;;;;;5281274;27;20001;-71
2024/04/21 03:02:58;;;;;;;2.72;2.40;;;3.80;99.90;;;;;;5269428;27;19997;-71
2024/04/21 03:05:23;;;;;;;3.42;2.65;;;3.80;99.90;;;;;;5284840;27;20053;-72
2024/04/21 03:07:49;;;;;;;4.00;3.22;;;3.80;99.90;;;;;;5272928;27;20384;-71
2024/04/21 03:10:14;;;;;;;5.72;3.00;;;3.80;99.90;;;;;;5279847;27;20051;-72
2024/04/21 03:12:40;;;;;;;2.55;2.30;;;3.80;99.90;;;;;;5302085;26;20677;-71
2024/04/21 03:15:06;;;;;;;3.17;2.88;;;3.80;99.90;;;;;;5294152;27;20058;-71
2024/04/21 03:17:32;;;;;;;4.13;2.60;;;3.80;99.90;;;;;;5293761;26;20005;-71
2024/04/21 03:19:57;;;;;;;2.33;2.10;;;3.80;99.90;;;;;;5281811;26;20138;-72
2024/04/21 03:22:23;;;;;;;4.85;3.15;;;3.70;99.90;;;;;;5291362;27;20458;-72
2024/04/21 03:24:49;;;;;;;3.13;2.53;;;3.70;99.90;;;;;;5271451;27;20085;-72
2024/04/21 03:27:14;;;;;;;3.13;2.63;;;3.70;99.90;;;;;;5288642;27;20505;-71
2024/04/21 03:29:40;;;;;;;4.20;2.58;;;3.70;99.90;;;;;;5294969;27;19998;-71
2024/04/21 03:32:06;;;;;;;3.25;2.95;;;3.60;99.90;;;;;;5287251;26;20408;-72
2024/04/21 03:34:31;;;;;;;2.75;2.38;;;3.60;99.90;;;;;;5279975;26;20053;-72
2024/04/21 03:36:57;;;;;;;3.28;2.42;;;3.60;99.90;;;;;;5296570;26;20402;-72
2024/04/21 03:39:22;;;;;;;2.78;2.55;;;3.50;99.90;;;;;;5283792;26;20024;-72
2024/04/21 03:41:48;;;;;;;3.20;2.92;;;3.60;99.90;;;;;;5292656;26;20050;-72
2024/04/21 03:44:14;;;;;;;3.00;2.53;;;3.50;99.90;;;;;;5289148;27;20026;-73
2024/04/21 03:46:39;;;;;;;3.50;3.10;;;3.50;99.90;;;;;;5293866;26;20365;-72
2024/04/21 03:49:05;;;;;;;3.88;2.95;;;3.50;99.90;;;;;;5300801;26;20521;-71
2024/04/21 03:51:31;;;;;;;3.33;2.67;;;3.50;99.90;;;;;;5298005;26;20052;-73
2024/04/21 03:53:56;;;;;;;4.38;3.10;;;3.50;99.90;;;;;;5263028;27;20014;-74
2024/04/21 03:56:22;;;;;;;3.05;2.55;;;3.50;99.90;;;;;;5255607;27;20511;-72
2024/04/21 03:58:47;;;;;;;4.22;3.00;;;3.50;99.90;;;;;;5268429;27;20002;-72
2024/04/21 04:01:13;;;;;;;3.65;2.92;;;3.50;99.90;;;;;;5290661;27;20045;-73
2024/04/21 04:03:40;;;;;;;2.30;2.10;;;3.50;99.90;;;;;;5294214;27;20049;-74
2024/04/21 04:06:07;;;;;;;3.85;3.45;;;3.50;99.90;;;;;;5304913;26;20002;-74
2024/04/21 04:08:33;;;;;;;4.57;3.17;;;3.50;99.90;;;;;;5302475;26;20005;-73
2024/04/21 04:10:59;;;;;;;3.08;2.85;;;3.50;99.90;;;;;;5298391;27;20028;-72
2024/04/21 04:13:24;;;;;;;3.47;2.30;;;3.50;99.90;;;;;;5257571;27;20002;-72
2024/04/21 04:15:50;;;;;;;2.60;2.42;;;3.50;99.90;;;;;;5276964;27;20951;-72
2024/04/21 04:18:15;;;;;;;3.97;2.88;;;3.50;99.90;;;;;;5261298;27;20380;-73
2024/04/21 04:20:41;;;;;;;2.45;1.75;;;3.50;99.90;;;;;;5265921;27;20005;-73
2024/04/21 04:23:07;;;;;;;3.10;2.72;;;3.50;99.90;;;;;;5273838;27;20033;-73
2024/04/21 04:25:32;;;;;;;2.50;2.30;;;3.50;99.90;;;;;;5299263;26;20392;-72
2024/04/21 04:27:58;;;;;;;2.58;2.28;;;3.50;99.90;;;;;;5266663;27;20013;-72
2024/04/21 04:30:24;;;;;;;3.08;2.50;;;3.50;99.90;;;;;;5290699;27;20840;-72
2024/04/21 04:32:49;;;;;;;2.03;1.92;;;3.60;99.90;;;;;;5293850;27;20001;-72
2024/04/21 04:35:16;;;;;;;5.18;3.08;;;3.50;99.90;;;;;;5285336;26;20001;-72
2024/04/21 04:37:42;;;;;;;3.25;2.40;;;3.50;99.90;;;;;;5297266;26;19997;-72
2024/04/21 04:40:08;;;;;;;2.95;2.67;;;3.50;99.90;;;;;;5295719;26;20002;-72
2024/04/21 04:42:34;;;;;;;2.90;2.65;;;3.50;99.90;;;;;;5294122;26;20370;-72
2024/04/21 04:45:00;;;;;;;3.63;2.75;;;3.50;99.90;;;;;;5295704;27;19994;-72
2024/04/21 04:47:26;;;;;;;3.22;2.65;;;3.60;99.90;;;;;;5282944;27;20010;-73
2024/04/21 04:49:51;;;;;;;2.97;2.13;;;3.50;99.90;;;;;;5259189;27;20068;-73
2024/04/21 04:52:17;;;;;;;3.38;2.67;;;3.60;99.90;;;;;;5295293;26;20014;-73
2024/04/21 04:54:43;;;;;;;3.08;2.78;;;3.60;99.90;;;;;;5295383;26;20422;-73
2024/04/21 04:57:08;;;;;;;3.63;2.55;;;3.60;99.90;;;;;;5294081;27;20042;-73
2024/04/21 04:59:34;;;;;;;3.17;2.45;;;3.60;99.90;;;;;;5292948;26;20025;-73
2024/04/21 05:02:00;;;;;;;1.55;1.45;;;3.60;99.90;;;;;;5251749;27;20014;-72
2024/04/21 05:04:25;;;;;;;2.15;1.95;;;3.50;99.90;;;;;;5291137;26;20001;-72
2024/04/21 05:06:51;;;;;;;1.80;1.70;;;3.50;99.90;;;;;;5284574;27;20016;-72
2024/04/21 05:09:17;;;;;;;9.18;2.97;;;3.60;99.90;;;;;;5258928;27;19994;-73
2024/04/21 05:11:42;;;;;;;2.30;2.10;;;3.60;99.90;;;;;;5286724;27;20005;-72
2024/04/21 05:14:08;;;;;;;1.25;1.25;;;3.60;99.90;;;;;;5295288;26;20006;-73
2024/04/21 05:16:34;;;;;;;2.47;2.28;;;3.60;99.90;;;;;;5284763;27;20002;-72
2024/04/21 05:18:59;;;;;;;2.13;1.92;;;3.70;99.90;;;;;;5292817;26;19994;-71
2024/04/21 05:21:25;;;;;;;2.38;2.17;;;3.70;99.90;;;;;;5287210;26;20054;-72
2024/04/21 05:23:50;;;;;;;3.08;2.03;;;3.70;99.90;;;;;;5286260;26;19998;-71
2024/04/21 05:26:16;;;;;;;2.38;2.10;;;3.80;99.90;;;;;;5253943;26;20009;-72
2024/04/21 05:28:42;;;;;;;2.20;2.00;;;3.80;99.90;;;;;;5295139;26;20060;-72
2024/04/21 05:31:07;;;;;;;2.20;2.00;;;3.80;99.90;;;;;;5257325;26;20008;-71
2024/04/21 05:33:33;;;;;;;2.08;1.92;;;3.90;99.90;;;;;;5292983;26;20013;-72
2024/04/21 05:35:59;;;;;;;2.15;1.98;;;3.90;99.90;;;;;;5285052;27;20005;-71
2024/04/21 05:38:24;;;;;;;2.50;1.90;;;3.90;99.90;;;;;;5287154;27;20010;-72
2024/04/21 05:40:50;;;;;;;2.35;2.15;;;3.90;99.90;;;;;;5283539;27;20056;-71
2024/04/21 05:43:16;;;;;;;1.38;1.27;;;3.90;99.90;;;;;;5291238;27;20002;-73
2024/04/21 05:45:42;;;;;;;1.90;1.80;;;3.90;99.90;;;;;;5293588;26;20648;-72
2024/04/21 05:48:07;;;;;;;1.80;1.70;;;4.00;99.90;;;;;;5251586;27;20065;-72
2024/04/21 05:50:33;;;;;;;0.98;0.98;;;4.00;99.90;;;;;;5264061;27;20028;-72
2024/04/21 05:52:59;;;;;;;1.60;1.50;;;4.00;99.90;;;;;;5289080;26;20005;-71
2024/04/21 05:55:24;;;;;;;2.08;1.90;;;4.00;99.90;;;;;;5290446;26;20014;-71
2024/04/21 05:57:50;;;;;;;2.63;2.17;;;4.00;99.90;;;;;;5260657;26;20001;-72
2024/04/21 06:00:16;;;;;;;1.55;1.45;;;4.00;99.90;;;;;;5249519;27;20084;-71
2024/04/21 06:02:42;;;;;;;2.88;2.10;;;4.10;99.90;;;;;;5291263;26;20144;-72
2024/04/21 06:05:07;;;;;;;1.77;1.42;;;4.10;99.90;;;;;;5295090;26;20009;-72
2024/04/21 06:07:33;;;;;;;1.90;1.80;;;4.10;99.90;;;;;;5305713;26;21465;-72
2024/04/21 06:09:59;;;;;;;2.42;1.70;;;4.20;99.90;;;;;;5286689;27;20009;-71
2024/04/21 06:12:25;;;;;;;1.65;1.55;;;4.20;99.90;;;;;;5265481;26;20026;-71
2024/04/21 06:14:50;;;;;;;1.52;1.42;;;4.20;99.90;;;;;;5298715;26;20873;-73
2024/04/21 06:17:16;;;;;;;1.50;1.40;;;4.20;99.90;;;;;;5289476;27;20010;-71
2024/04/21 06:19:42;;;;;;;1.20;1.17;;;4.30;99.90;;;;;;5289669;26;20017;-70
2024/04/21 06:22:09;;;;;;;1.10;1.10;;;4.30;99.90;;;;;;5296946;26;20014;-70
2024/04/21 06:24:35;;;;;;;1.50;1.40;;;4.30;99.90;;;;;;5254137;27;20013;-72
2024/04/21 06:27:01;;;;;;;1.17;1.17;;;4.30;99.90;;;;;;5285800;26;20010;-72
2024/04/21 06:29:27;;;;;;;2.50;1.60;;;4.50;99.90;;;;;;5290838;26;20005;-72
2024/04/21 06:31:53;;;;;;;1.30;1.20;;;4.50;99.90;;;;;;5287587;26;20049;-72
2024/04/21 06:34:18;;;;;;;1.90;1.10;;;4.60;99.90;;;;;;5283341;26;20012;-70
2024/04/21 06:36:44;;;;;;;2.65;1.48;;;4.50;99.90;;;;;;5284042;26;20042;-71
2024/04/21 06:39:10;;;;;;;0.52;0.52;;;4.50;99.90;;;;;;5254240;27;20482;-71
2024/04/21 06:41:35;;;;;;;1.48;1.38;;;4.50;99.90;;;;;;5278181;27;20005;-72
2024/04/21 06:44:01;;;;;;;1.77;1.67;;;4.50;99.90;;;;;;5284241;26;20001;-71
2024/04/21 06:46:27;;;;;;;2.10;1.30;;;4.50;99.90;;;;;;5284808;26;20085;-71
2024/04/21 06:48:53;;;;;;;1.90;1.77;;;4.50;99.90;;;;;;5290770;26;20001;-72
2024/04/21 06:51:18;;;;;;;1.98;1.70;;;4.60;99.90;;;;;;5259039;26;20020;-72
2024/04/21 06:53:45;;;;;;;2.38;1.77;;;4.60;99.90;;;;;;5281635;26;20017;-72
2024/04/21 06:56:11;;;;;;;1.80;1.70;;;4.60;99.90;;;;;;5281225;26;20083;-73
2024/04/21 06:58:37;;;;;;;2.15;2.05;;;4.60;99.90;;;;;;5258884;27;20021;-71
2024/04/21 07:01:02;;;;;;;1.90;1.80;;;4.50;99.90;;;;;;5255224;27;20005;-71
2024/04/21 07:03:28;;;;;;;1.45;1.38;;;4.50;99.90;;;;;;5291276;26;20009;-72
2024/04/21 07:05:54;;;;;;;1.20;1.10;;;4.60;99.90;;;;;;5283852;26;20007;-70
2024/04/21 07:08:19;;;;;;;4.70;2.05;;;4.60;99.90;;;;;;5292071;26;19997;-72
2024/04/21 07:10:45;;;;;;;1.17;1.17;;;4.60;99.90;;;;;;5285629;26;20006;-72
2024/04/21 07:13:11;;;;;;;1.95;1.58;;;4.70;99.90;;;;;;5284779;26;20256;-72
2024/04/21 07:15:38;;;;;;;1.75;1.65;;;4.60;99.90;;;;;;5260557;26;20799;-72
2024/04/21 07:18:07;;;;;;;2.80;1.92;;;4.70;99.90;;;;;;5288139;26;20873;-73
2024/04/21 07:20:36;;;;;;;2.45;2.25;;;4.60;99.90;;;;;;5257963;27;20563;-71
2024/04/21 07:23:04;;;;;;;1.55;1.20;;;4.50;99.90;;;;;;5263866;26;20059;-72
2024/04/21 07:25:30;;;;;;;2.40;2.20;;;4.60;99.90;;;;;;5261184;26;20001;-72
2024/04/21 07:27:56;;;;;;;1.95;1.52;;;4.60;99.90;;;;;;5252524;27;20134;-72
2024/04/21 07:30:21;;;;;;;2.40;2.15;;;4.50;99.90;;;;;;5293143;27;20008;-72
2024/04/21 07:32:47;;;;;;;1.27;1.27;;;4.60;99.90;;;;;;5286615;26;20495;-71
2024/04/21 07:35:13;;;;;;;1.08;1.08;;;4.60;99.90;;;;;;5293514;26;20017;-71
2024/04/21 07:37:39;;;;;;;1.80;1.70;;;4.60;99.90;;;;;;5302516;26;20013;-71
2024/04/21 07:40:06;;;;;;;1.73;1.63;;;4.60;99.90;;;;;;5262527;27;20002;-72
2024/04/21 07:42:32;;;;;;;1.77;1.55;;;4.70;99.90;;;;;;5260937;26;20009;-72
2024/04/21 07:44:57;;;;;;;1.50;1.40;;;4.70;99.90;;;;;;5264376;26;20001;-71
2024/04/21 07:47:23;;;;;;;1.90;1.77;;;4.60;99.90;;;;;;5294451;26;20005;-73
2024/04/21 07:49:51;;;;;;;2.13;2.00;;;4.70;99.90;;;;;;5287220;26;20704;-73
2024/04/21 07:52:17;;;;;;;6.00;2.08;;;4.50;99.90;;;;;;5290694;26;20029;-73
2024/04/21 07:54:43;;;;;;;1.88;1.77;;;4.60;99.90;;;;;;5257634;27;20006;-74
2024/04/21 07:57:08;;;;;;;1.80;1.70;;;4.60;99.90;;;;;;5258871;27;20009;-74
2024/04/21 07:59:34;;;;;;;1.30;1.30;;;4.70;99.90;;;;;;5263524;27;20037;-74
2024/04/21 08:01:59;;;;;;;0.88;0.88;;;4.70;99.90;;;;;;5251463;27;20410;-74
2024/04/21 08:04:25;;;;;;;0.90;0.90;;;4.50;99.90;;;;;;5263223;27;20427;-74
2024/04/21 08:06:51;;;;;;;1.30;1.23;;;4.60;99.90;;;;;;5265438;26;20829;-74
2024/04/21 08:09:16;;;;;;;0.77;0.77;;;4.70;99.90;;;;;;5300164;26;20553;-74
2024/04/21 08:11:42;;;;;;;1.35;1.30;;;4.80;99.90;;;;;;5293377;27;20013;-74
2024/04/21 08:14:07;;;;;;;0.82;0.82;;;4.80;99.90;;;;;;5298200;26;20001;-74
2024/04/21 08:16:33;;;;;;;2.00;1.40;;;4.60;99.90;;;;;;5298689;26;20032;-74
2024/04/21 08:18:59;;;;;;;1.05;1.05;;;4.50;99.90;;;;;;5252472;27;20068;-74
2024/04/21 08:21:25;;;;;;;1.00;1.00;;;4.50;99.90;;;;;;5254986;26;20006;-75
2024/04/21 08:23:50;;;;;;;0.70;0.70;;;4.40;99.90;;;;;;5288560;26;20417;-74
2024/04/21 08:26:16;;;;;;;0.80;0.80;;;4.30;99.90;;;;;;5266772;27;20667;-74
2024/04/21 08:28:42;;;;;;;1.00;1.00;;;4.10;99.90;;;;;;5260619;27;20024;-74
2024/04/21 08:31:08;;;;;;;1.40;1.30;;;4.10;99.90;;;;;;5293788;27;20005;-74
2024/04/21 08:33:35;;;;;;;1.35;1.20;;;4.20;99.90;;;;;;5291218;27;20324;-75
2024/04/21 08:36:02;;;;;;;1.73;1.00;;;4.10;99.90;;;;;;5267378;27;20358;-75
2024/04/21 08:38:28;;;;;;;1.00;1.00;;;4.30;99.90;;;;;;5252655;27;20018;-75
2024/04/21 08:40:54;;;;;;;1.15;0.95;;;4.40;99.90;;;;;;5250669;27;20006;-75
2024/04/21 08:43:24;;;;;;;1.10;1.10;;;4.40;99.90;;;;;;5241929;27;20017;-75
2024/04/21 08:45:56;;;;;;;0.85;0.85;;;4.60;99.90;;;;;;5254186;27;20010;-75
2024/04/21 08:48:25;;;;;;;0.63;0.63;;;4.70;99.90;;;;;;5249929;27;20727;-75
2024/04/21 08:50:51;;;;;;;0.90;0.90;;;4.70;99.90;;;;;;5253207;27;20021;-75
2024/04/21 08:53:20;;;;;;;0.77;0.77;;;4.70;99.90;;;;;;5254057;27;20080;-75
2024/04/21 08:55:46;;;;;;;;;;;4.70;99.90;;;;;;5246060;27;20088;-76
2024/04/21 08:58:15;;;;;;;0.70;0.70;;;4.70;99.90;;;;;;5283893;26;19958;-75
2024/04/21 09:00:40;;;;;;;1.08;1.05;;;4.80;99.90;;;;;;5254893;27;19999;-74
2024/04/21 09:03:08;;;;;;;0.70;0.70;;;4.90;99.90;;;;;;5291873;26;20038;-74
2024/04/21 09:05:33;;;;;;;0.80;0.80;;;4.90;99.90;;;;;;5258863;27;20011;-75
2024/04/21 09:07:59;;;;;;;1.02;1.02;;;4.90;99.90;;;;;;5247797;27;20018;-75
2024/04/21 09:10:26;;;;;;;0.90;0.90;;;5.00;99.90;;;;;;5259321;27;20017;-75
2024/04/21 09:12:52;;;;;;;0.60;0.60;;;5.00;99.90;;;;;;5263133;26;20823;-75
2024/04/21 09:15:30;;;;;;;2.25;0.77;;;4.70;99.90;;;;;;5257887;27;20550;-75
2024/04/21 09:17:56;;;;;;;0.80;0.80;;;4.60;99.90;;;;;;5261283;27;20437;-75
2024/04/21 09:20:24;;;;;;;1.17;1.02;;;4.60;99.90;;;;;;5256421;27;20017;-75
2024/04/21 09:22:53;;;;;;;0.82;0.82;;;4.70;99.90;;;;;;5251905;27;20022;-75
2024/04/21 09:25:19;;;;;;;0.70;0.70;;;4.70;99.90;;;;;;5253531;27;20472;-75
2024/04/21 09:27:48;;;;;;;0.77;0.77;;;4.70;99.90;;;;;;5260068;27;20056;-75
2024/04/21 09:30:14;;;;;;;0.88;0.88;;;4.80;99.90;;;;;;5261854;27;19994;-75
2024/04/21 09:32:39;;;;;;;0.70;0.70;;;4.90;99.90;;;;;;5247742;27;20389;-74
2024/04/21 09:35:06;;;;;;;0.98;0.98;;;4.70;99.90;;;;;;5253751;27;20030;-75
2024/04/21 09:37:34;;;;;;;0.70;0.70;;;4.80;99.90;;;;;;5247949;27;20032;-75
2024/04/21 09:40:01;;;;;;;9.85;1.52;;;4.80;99.90;;;;;;5278042;26;20037;-75
2024/04/21 09:42:31;;;;;;;0.52;0.52;;;5.00;99.90;;;;;;5255092;27;20525;-75
2024/04/21 09:44:57;;;;;;;1.00;1.00;;;4.90;99.90;;;;;;5252097;27;20361;-74
2024/04/21 09:47:24;;;;;;;0.70;0.70;;;4.90;99.90;;;;;;5262964;26;20323;-75
2024/04/21 09:49:54;;;;;;;0.70;0.70;;;5.00;99.90;;;;;;5287943;26;20005;-74
2024/04/21 09:52:22;;;;;;;0.60;0.60;;;5.00;99.90;;;;;;5290118;26;20017;-73
2024/04/21 09:54:48;;;;;;;0.80;0.80;;;4.80;99.90;;;;;;5262159;27;20435;-75
2024/04/21 09:57:18;;;;;;;0.70;0.70;;;4.90;99.90;;;;;;5292803;26;20010;-75
2024/04/21 09:59:45;;;;;;;0.70;0.70;;;4.90;99.90;;;;;;5261844;26;20004;-75
2024/04/21 10:02:23;;;;;;;0.60;0.60;;;4.90;99.90;;;;;;5290193;26;20713;-75
2024/04/21 10:05:13;;;;;;;0.68;0.68;;;4.90;99.90;;;;;;5263969;27;20004;-75
2024/04/21 10:07:39;;;;;;;0.93;0.93;;;4.90;99.90;;;;;;5297303;26;20001;-75
2024/04/21 10:10:16;;;;;;;0.73;0.73;;;4.90;99.90;;;;;;5292282;26;20595;-74
2024/04/21 10:12:43;;;;;;;1.27;0.80;;;5.00;99.90;;;;;;5289102;26;19999;-75
2024/04/21 10:15:11;;;;;;;0.70;0.70;;;5.00;99.90;;;;;;5291641;27;20010;-74
2024/04/21 10:17:36;;;;;;;0.68;0.68;;;5.20;99.90;;;;;;5259316;26;20041;-74
2024/04/21 10:20:09;;;;;;;0.70;0.70;;;5.30;99.90;;;;;;5299936;26;19997;-74
2024/04/21 10:22:37;;;;;;;0.90;0.90;;;5.40;99.90;;;;;;5289386;26;20015;-75
2024/04/21 10:25:03;;;;;;;0.80;0.80;;;5.40;99.90;;;;;;5261739;27;20613;-74
2024/04/21 10:27:29;;;;;;;0.85;0.85;;;5.50;99.90;;;;;;5295074;26;20005;-76
2024/04/21 10:29:55;;;;;;;0.93;0.77;;;5.50;99.90;;;;;;5297227;26;20344;-75
2024/04/21 10:32:25;;;;;;;0.75;0.75;;;5.50;99.90;;;;;;5268257;26;20891;-75
2024/04/21 10:34:51;;;;;;;0.73;0.73;;;5.50;99.90;;;;;;5290294;26;20083;-76
2024/04/21 10:37:23;;;;;;;0.90;0.90;;;5.50;99.90;;;;;;5265775;26;20017;-75
2024/04/21 10:40:07;;;;;;;0.80;0.80;;;5.60;99.90;;;;;;5294348;27;19998;-76
2024/04/21 10:42:34;;;;;;;0.70;0.70;;;5.70;99.90;;;;;;5264062;26;20803;-75
2024/04/21 10:45:00;;;;;;;0.95;0.90;;;5.70;99.90;;;;;;5297300;26;20756;-75
2024/04/21 10:47:26;;;;;;;0.85;0.85;;;5.80;99.90;;;;;;5298445;26;20001;-76
2024/04/21 10:49:52;;;;;;;1.10;1.10;;;5.80;99.90;;;;;;5299025;27;20138;-75
2024/04/21 10:52:18;;;;;;;0.60;0.60;;;5.80;99.90;;;;;;5292293;26;20013;-75
2024/04/21 10:54:44;;;;;;;0.90;0.90;;;5.70;99.90;;;;;;5269401;27;20021;-75
2024/04/21 10:57:10;;;;;;;0.80;0.80;;;5.70;99.90;;;;;;5298279;26;20010;-75
2024/04/21 10:59:36;;;;;;;0.70;0.70;;;5.60;99.90;;;;;;5294977;26;20002;-74
2024/04/21 11:02:02;;;;;;;1.08;0.88;;;5.60;99.90;;;;;;5266315;27;19998;-75
2024/04/21 11:04:28;;;;;;;0.60;0.60;;;5.70;99.90;;;;;;5261483;26;20028;-75
2024/04/21 11:06:55;;;;;;;0.55;0.52;;;5.60;99.90;;;;;;5291721;26;20016;-74
2024/04/21 11:09:21;;;;;;;1.10;1.10;;;5.60;99.90;;;;;;5295839;27;20057;-74
2024/04/21 11:11:47;;;;;;;0.70;0.70;;;5.60;99.90;;;;;;5295185;26;20008;-75
2024/04/21 11:14:13;;;;;;;0.65;0.65;;;5.70;99.90;;;;;;5260346;27;20013;-74
2024/04/21 11:16:39;;;;;;;0.70;0.70;;;5.80;99.90;;;;;;5286154;26;20006;-74
2024/04/21 11:19:05;;;;;;;0.70;0.70;;;5.70;99.90;;;;;;5290852;27;20076;-76
2024/04/21 11:21:32;;;;;;;0.73;0.73;;;5.80;99.90;;;;;;5291848;26;20005;-76
2024/04/21 11:23:58;;;;;;;0.50;0.50;;;6.10;99.90;;;;;;5289264;26;20020;-75
2024/04/21 11:26:24;;;;;;;0.70;0.70;;;6.10;99.90;;;;;;5259326;26;20705;-75
2024/04/21 11:28:49;;;;;;;0.82;0.82;;;6.10;99.90;;;;;;5261929;27;20003;-74
2024/04/21 11:31:15;;;;;;;2.90;0.60;;;6.10;99.90;;;;;;5290203;27;19994;-74
2024/04/21 11:33:41;;;;;;;0.60;0.60;;;5.90;99.90;;;;;;5286308;26;20012;-75
2024/04/21 11:36:17;;;;;;;0.60;0.60;;;5.40;99.90;;;;;;5291846;26;20001;-75
2024/04/21 11:38:44;;;;;;;0.77;0.70;;;5.00;99.90;;;;;;5293922;26;20016;-75
2024/04/21 11:41:12;;;;;;;0.60;0.60;;;5.10;99.90;;;;;;5262465;26;20005;-74
2024/04/21 11:43:38;;;;;;;0.63;0.63;;;5.00;99.90;;;;;;5298653;26;20318;-75
2024/04/21 11:46:58;;;;;;;0.80;0.80;;;5.00;99.90;;;;;;5293912;26;20079;-75
2024/04/21 11:49:25;;;;;;;0.90;0.90;;;5.30;99.90;;;;;;5259923;27;20035;-76
2024/04/21 11:51:51;;;;;;;0.90;0.90;;;5.50;99.90;;;;;;5265904;26;20006;-75
2024/04/21 11:54:17;;;;;;;0.80;0.80;;;5.60;99.90;;;;;;5270174;27;20001;-74
2024/04/21 11:56:42;;;;;;;0.80;0.80;;;5.70;99.90;;;;;;5292952;26;21121;-74
2024/04/21 11:59:10;;;;;;;0.90;0.90;;;5.70;99.90;;;;;;5295705;26;20060;-75
2024/04/21 12:01:36;;;;;;;0.68;0.68;;;6.00;99.90;;;;;;5283929;27;20765;-75
2024/04/21 12:04:02;;;;;;;0.93;0.90;;;6.20;99.90;;;;;;5293594;27;19998;-74
2024/04/21 12:06:28;;;;;;;0.90;0.90;;;6.30;99.90;;;;;;5293371;26;20078;-74
2024/04/21 12:08:56;;;;;;;0.95;0.95;;;6.20;99.90;;;;;;5293071;26;20024;-74
2024/04/21 12:11:22;;;;;;;1.00;1.00;;;6.20;99.90;;;;;;5294624;26;20012;-74
2024/04/21 12:13:47;;;;;;;0.75;0.75;;;6.30;99.90;;;;;;5289158;26;20032;-74
2024/04/21 12:16:13;;;;;;;0.95;0.95;;;6.40;99.90;;;;;;5288815;26;20001;-73
2024/04/21 12:18:39;;;;;;;0.90;0.90;;;6.70;99.90;;;;;;5261211;27;20006;-73
2024/04/21 12:21:06;;;;;;;0.90;0.90;;;6.90;99.90;;;;;;5263235;27;20006;-74
2024/04/21 12:23:32;;;;;;;0.93;0.93;;;6.80;99.90;;;;;;5285532;26;20293;-74
2024/04/21 12:25:57;;;;;;;0.93;0.93;;;6.50;99.90;;;;;;5296891;26;19997;-74
2024/04/21 12:28:23;;;;;;;1.20;1.10;;;6.40;99.90;;;;;;5290727;26;20023;-74
2024/04/21 12:30:49;;;;;;;1.88;1.00;;;6.40;99.90;;;;;;5265940;27;19994;-73
2024/04/21 12:33:15;;;;;;;1.25;1.20;;;6.30;99.90;;;;;;5256543;27;20050;-74
2024/04/21 12:35:44;;;;;;;1.08;1.08;;;6.20;99.90;;;;;;5266005;26;19996;-73
2024/04/21 12:38:09;;;;;;;1.08;1.08;;;6.20;99.90;;;;;;5266855;27;20002;-73
2024/04/21 12:40:35;;;;;;;1.00;1.00;;;6.30;99.90;;;;;;5290860;26;20359;-74
2024/04/21 12:43:01;;;;;;;0.90;0.90;;;6.40;99.90;;;;;;5298093;26;20360;-74
2024/04/21 12:45:29;;;;;;;0.93;0.93;;;6.50;99.90;;;;;;5262747;26;20138;-73
2024/04/21 12:47:55;;;;;;;1.30;1.20;;;6.60;99.90;;;;;;5265245;27;20594;-73
2024/04/21 12:50:21;;;;;;;1.00;1.00;;;6.70;99.90;;;;;;5265076;26;20006;-73
2024/04/21 12:52:47;;;;;;;0.90;0.90;;;6.60;99.90;;;;;;5298568;26;20713;-74